sensor_id;sensor_type;location;lat;lon;timestamp;P1;durP1;ratioP1;P2;durP2;ratioP2
48034;SDS011;33812;46.480;6.834;2022-12-15T00:03:06;4.20;;;1.73;;
48034;SDS011;33812;46.480;6.834;2022-12-15T00:07:28;5.38;;;1.85;;
48034;SDS011;33812;46.480;6.834;2022-12-15T00:11:47;4.50;;;1.52;;
48034;SDS011;33812;46.480;6.834;2022-12-15T00:16:07;3.63;;;1.50;;
48034;SDS011;33812;46.480;6.834;2022-12-15T00:20:28;3.40;;;1.65;;
48034;SDS011;33812;46.480;6.834;2022-12-15T00:24:47;3.97;;;1.30;;
48034;SDS011;33812;46.480;6.834;2022-12-15T00:29:08;4.20;;;1.60;;
48034;SDS011;33812;46.480;6.834;2022-12-15T00:33:27;6.53;;;1.80;;
48034;SDS011;33812;46.480;6.834;2022-12-15T00:37:48;2.38;;;1.40;;
48034;SDS011;33812;46.480;6.834;2022-12-15T00:42:08;3.20;;;1.45;;
48034;SDS011;33812;46.480;6.834;2022-12-15T00:46:10;3.03;;;1.40;;
48034;SDS011;33812;46.480;6.834;2022-12-15T00:50:30;3.83;;;1.63;;
48034;SDS011;33812;46.480;6.834;2022-12-15T00:54:51;1.98;;;1.20;;
48034;SDS011;33812;46.480;6.834;2022-12-15T00:59:10;2.53;;;1.20;;
48034;SDS011;33812;46.480;6.834;2022-12-15T01:03:30;2.75;;;1.48;;
48034;SDS011;33812;46.480;6.834;2022-12-15T01:07:49;1.58;;;1.20;;
48034;SDS011;33812;46.480;6.834;2022-12-15T01:12:10;4.45;;;1.65;;
48034;SDS011;33812;46.480;6.834;2022-12-15T01:16:29;5.57;;;1.13;;
48034;SDS011;33812;46.480;6.834;2022-12-15T01:20:53;2.88;;;1.60;;
48034;SDS011;33812;46.480;6.834;2022-12-15T01:24:55;3.47;;;1.30;;
48034;SDS011;33812;46.480;6.834;2022-12-15T01:28:58;2.45;;;1.40;;
48034;SDS011;33812;46.480;6.834;2022-12-15T01:33:00;1.55;;;1.10;;
48034;SDS011;33812;46.480;6.834;2022-12-15T01:37:02;5.07;;;1.40;;
48034;SDS011;33812;46.480;6.834;2022-12-15T01:41:05;2.88;;;1.17;;
48034;SDS011;33812;46.480;6.834;2022-12-15T01:45:39;2.33;;;1.00;;
48034;SDS011;33812;46.480;6.834;2022-12-15T01:49:46;3.00;;;1.40;;
48034;SDS011;33812;46.480;6.834;2022-12-15T01:53:50;2.13;;;1.00;;
48034;SDS011;33812;46.480;6.834;2022-12-15T01:57:56;2.88;;;1.40;;
48034;SDS011;33812;46.480;6.834;2022-12-15T02:02:04;2.65;;;1.27;;
48034;SDS011;33812;46.480;6.834;2022-12-15T02:06:06;1.30;;;1.00;;
48034;SDS011;33812;46.480;6.834;2022-12-15T02:10:09;2.28;;;1.40;;
48034;SDS011;33812;46.480;6.834;2022-12-15T02:14:13;2.28;;;1.30;;
48034;SDS011;33812;46.480;6.834;2022-12-15T02:18:27;1.75;;;0.95;;
48034;SDS011;33812;46.480;6.834;2022-12-15T02:22:39;1.80;;;1.17;;
48034;SDS011;33812;46.480;6.834;2022-12-15T02:31:36;1.63;;;1.08;;
48034;SDS011;33812;46.480;6.834;2022-12-15T02:35:52;1.70;;;1.00;;
48034;SDS011;33812;46.480;6.834;2022-12-15T02:39:57;3.15;;;1.17;;
48034;SDS011;33812;46.480;6.834;2022-12-15T02:44:00;1.58;;;1.10;;
48034;SDS011;33812;46.480;6.834;2022-12-15T02:48:09;2.70;;;1.10;;
48034;SDS011;33812;46.480;6.834;2022-12-15T02:52:21;1.77;;;1.13;;
48034;SDS011;33812;46.480;6.834;2022-12-15T02:56:36;1.60;;;1.00;;
48034;SDS011;33812;46.480;6.834;2022-12-15T03:00:45;1.70;;;1.10;;
48034;SDS011;33812;46.480;6.834;2022-12-15T03:04:54;2.47;;;1.30;;
48034;SDS011;33812;46.480;6.834;2022-12-15T03:08:56;2.15;;;1.00;;
48034;SDS011;33812;46.480;6.834;2022-12-15T03:12:58;1.58;;;1.08;;
48034;SDS011;33812;46.480;6.834;2022-12-15T03:17:00;1.73;;;1.10;;
48034;SDS011;33812;46.480;6.834;2022-12-15T03:21:04;1.90;;;0.98;;
48034;SDS011;33812;46.480;6.834;2022-12-15T03:25:06;1.30;;;0.88;;
48034;SDS011;33812;46.480;6.834;2022-12-15T03:29:09;3.25;;;1.00;;
48034;SDS011;33812;46.480;6.834;2022-12-15T03:33:11;1.52;;;0.80;;
48034;SDS011;33812;46.480;6.834;2022-12-15T03:37:14;3.22;;;1.10;;
48034;SDS011;33812;46.480;6.834;2022-12-15T03:41:16;1.08;;;0.88;;
48034;SDS011;33812;46.480;6.834;2022-12-15T03:45:19;1.10;;;0.80;;
48034;SDS011;33812;46.480;6.834;2022-12-15T03:49:23;1.70;;;1.00;;
48034;SDS011;33812;46.480;6.834;2022-12-15T03:53:26;0.75;;;0.68;;
48034;SDS011;33812;46.480;6.834;2022-12-15T03:57:28;2.63;;;0.90;;
48034;SDS011;33812;46.480;6.834;2022-12-15T04:01:30;1.13;;;0.82;;
48034;SDS011;33812;46.480;6.834;2022-12-15T04:05:33;0.70;;;0.50;;
48034;SDS011;33812;46.480;6.834;2022-12-15T04:09:37;1.70;;;1.20;;
48034;SDS011;33812;46.480;6.834;2022-12-15T04:13:39;1.35;;;0.90;;
48034;SDS011;33812;46.480;6.834;2022-12-15T04:17:41;1.10;;;0.80;;
48034;SDS011;33812;46.480;6.834;2022-12-15T04:21:43;1.33;;;0.93;;
48034;SDS011;33812;46.480;6.834;2022-12-15T04:25:46;0.77;;;0.55;;
48034;SDS011;33812;46.480;6.834;2022-12-15T04:30:06;1.45;;;0.90;;
48034;SDS011;33812;46.480;6.834;2022-12-15T04:34:26;1.90;;;1.00;;
48034;SDS011;33812;46.480;6.834;2022-12-15T04:38:45;2.13;;;0.80;;
48034;SDS011;33812;46.480;6.834;2022-12-15T04:43:06;1.38;;;0.55;;
48034;SDS011;33812;46.480;6.834;2022-12-15T04:47:25;1.48;;;0.73;;
48034;SDS011;33812;46.480;6.834;2022-12-15T04:51:45;2.20;;;0.80;;
48034;SDS011;33812;46.480;6.834;2022-12-15T04:56:08;2.65;;;0.90;;
48034;SDS011;33812;46.480;6.834;2022-12-15T05:00:29;1.33;;;0.75;;
48034;SDS011;33812;46.480;6.834;2022-12-15T05:04:48;1.48;;;0.60;;
48034;SDS011;33812;46.480;6.834;2022-12-15T05:09:08;0.88;;;0.70;;
48034;SDS011;33812;46.480;6.834;2022-12-15T05:13:27;0.88;;;0.68;;
48034;SDS011;33812;46.480;6.834;2022-12-15T05:17:47;1.23;;;0.60;;
48034;SDS011;33812;46.480;6.834;2022-12-15T05:22:07;1.10;;;0.70;;
48034;SDS011;33812;46.480;6.834;2022-12-15T05:26:26;0.63;;;0.60;;
48034;SDS011;33812;46.480;6.834;2022-12-15T05:30:46;1.08;;;0.60;;
48034;SDS011;33812;46.480;6.834;2022-12-15T05:35:07;1.17;;;0.65;;
48034;SDS011;33812;46.480;6.834;2022-12-15T05:39:09;0.88;;;0.70;;
48034;SDS011;33812;46.480;6.834;2022-12-15T05:43:10;2.88;;;0.60;;
48034;SDS011;33812;46.480;6.834;2022-12-15T05:47:12;2.58;;;0.57;;
48034;SDS011;33812;46.480;6.834;2022-12-15T05:51:15;1.85;;;0.70;;
48034;SDS011;33812;46.480;6.834;2022-12-15T05:55:17;2.13;;;0.77;;
48034;SDS011;33812;46.480;6.834;2022-12-15T05:59:19;1.23;;;0.60;;
48034;SDS011;33812;46.480;6.834;2022-12-15T06:03:22;5.10;;;0.60;;
48034;SDS011;33812;46.480;6.834;2022-12-15T06:07:26;2.05;;;0.60;;
48034;SDS011;33812;46.480;6.834;2022-12-15T06:11:27;5.53;;;0.52;;
48034;SDS011;33812;46.480;6.834;2022-12-15T06:15:30;7.63;;;0.88;;
48034;SDS011;33812;46.480;6.834;2022-12-15T06:19:32;19.98;;;1.63;;
48034;SDS011;33812;46.480;6.834;2022-12-15T06:23:36;3.50;;;0.80;;
48034;SDS011;33812;46.480;6.834;2022-12-15T06:27:38;7.53;;;1.38;;
48034;SDS011;33812;46.480;6.834;2022-12-15T06:31:40;8.13;;;1.00;;
48034;SDS011;33812;46.480;6.834;2022-12-15T06:35:42;1.98;;;0.70;;
48034;SDS011;33812;46.480;6.834;2022-12-15T06:39:46;10.25;;;1.20;;
48034;SDS011;33812;46.480;6.834;2022-12-15T06:43:48;4.45;;;0.80;;
48034;SDS011;33812;46.480;6.834;2022-12-15T06:47:51;4.90;;;0.77;;
48034;SDS011;33812;46.480;6.834;2022-12-15T06:51:52;4.75;;;1.13;;
48034;SDS011;33812;46.480;6.834;2022-12-15T06:55:58;3.33;;;1.38;;
48034;SDS011;33812;46.480;6.834;2022-12-15T07:00:02;9.50;;;1.05;;
48034;SDS011;33812;46.480;6.834;2022-12-15T07:04:05;6.40;;;0.90;;
48034;SDS011;33812;46.480;6.834;2022-12-15T07:08:07;10.35;;;0.93;;
48034;SDS011;33812;46.480;6.834;2022-12-15T07:12:11;6.65;;;1.30;;
48034;SDS011;33812;46.480;6.834;2022-12-15T07:16:13;2.33;;;0.70;;
48034;SDS011;33812;46.480;6.834;2022-12-15T07:20:15;4.78;;;0.98;;
48034;SDS011;33812;46.480;6.834;2022-12-15T07:24:17;5.28;;;0.70;;
48034;SDS011;33812;46.480;6.834;2022-12-15T07:28:21;9.73;;;0.85;;
48034;SDS011;33812;46.480;6.834;2022-12-15T07:32:23;6.73;;;0.90;;
48034;SDS011;33812;46.480;6.834;2022-12-15T07:36:24;7.47;;;0.90;;
48034;SDS011;33812;46.480;6.834;2022-12-15T07:40:26;9.80;;;1.02;;
48034;SDS011;33812;46.480;6.834;2022-12-15T07:44:30;7.88;;;0.93;;
48034;SDS011;33812;46.480;6.834;2022-12-15T07:48:32;6.40;;;1.13;;
48034;SDS011;33812;46.480;6.834;2022-12-15T07:52:35;7.05;;;0.70;;
48034;SDS011;33812;46.480;6.834;2022-12-15T07:56:36;6.85;;;0.98;;
48034;SDS011;33812;46.480;6.834;2022-12-15T08:00:40;2.83;;;1.00;;
48034;SDS011;33812;46.480;6.834;2022-12-15T08:04:41;11.32;;;1.17;;
48034;SDS011;33812;46.480;6.834;2022-12-15T08:08:43;1.58;;;0.70;;
48034;SDS011;33812;46.480;6.834;2022-12-15T08:12:47;3.03;;;1.00;;
48034;SDS011;33812;46.480;6.834;2022-12-15T08:16:50;7.95;;;0.80;;
48034;SDS011;33812;46.480;6.834;2022-12-15T08:20:52;6.47;;;0.88;;
48034;SDS011;33812;46.480;6.834;2022-12-15T08:24:53;7.68;;;1.02;;
48034;SDS011;33812;46.480;6.834;2022-12-15T08:28:55;2.92;;;0.73;;
48034;SDS011;33812;46.480;6.834;2022-12-15T08:32:58;2.40;;;0.70;;
48034;SDS011;33812;46.480;6.834;2022-12-15T08:37:00;5.03;;;0.65;;
48034;SDS011;33812;46.480;6.834;2022-12-15T08:41:06;1.25;;;0.55;;
48034;SDS011;33812;46.480;6.834;2022-12-15T08:45:09;4.75;;;1.40;;
48034;SDS011;33812;46.480;6.834;2022-12-15T08:49:13;2.25;;;1.02;;
48034;SDS011;33812;46.480;6.834;2022-12-15T08:53:14;3.33;;;1.05;;
48034;SDS011;33812;46.480;6.834;2022-12-15T08:57:16;1.92;;;0.90;;
48034;SDS011;33812;46.480;6.834;2022-12-15T09:01:18;1.95;;;1.20;;
48034;SDS011;33812;46.480;6.834;2022-12-15T09:05:23;2.63;;;0.90;;
48034;SDS011;33812;46.480;6.834;2022-12-15T09:09:25;2.45;;;0.80;;
48034;SDS011;33812;46.480;6.834;2022-12-15T09:13:27;2.53;;;0.90;;
48034;SDS011;33812;46.480;6.834;2022-12-15T09:17:29;1.55;;;0.70;;
48034;SDS011;33812;46.480;6.834;2022-12-15T09:21:32;1.20;;;0.70;;
48034;SDS011;33812;46.480;6.834;2022-12-15T09:25:34;2.40;;;0.85;;
48034;SDS011;33812;46.480;6.834;2022-12-15T09:29:36;2.70;;;1.15;;
48034;SDS011;33812;46.480;6.834;2022-12-15T09:33:38;1.13;;;0.50;;
48034;SDS011;33812;46.480;6.834;2022-12-15T09:37:42;1.27;;;0.82;;
48034;SDS011;33812;46.480;6.834;2022-12-15T09:41:48;2.28;;;0.82;;
48034;SDS011;33812;46.480;6.834;2022-12-15T09:45:55;1.00;;;0.60;;
48034;SDS011;33812;46.480;6.834;2022-12-15T09:50:04;4.85;;;1.05;;
48034;SDS011;33812;46.480;6.834;2022-12-15T09:54:11;1.23;;;0.90;;
48034;SDS011;33812;46.480;6.834;2022-12-15T09:58:14;1.23;;;0.75;;
48034;SDS011;33812;46.480;6.834;2022-12-15T10:06:56;1.83;;;0.80;;
48034;SDS011;33812;46.480;6.834;2022-12-15T10:11:16;3.10;;;0.90;;
48034;SDS011;33812;46.480;6.834;2022-12-15T10:19:25;6.18;;;1.00;;
48034;SDS011;33812;46.480;6.834;2022-12-15T10:23:34;1.50;;;1.00;;
48034;SDS011;33812;46.480;6.834;2022-12-15T10:27:45;1.85;;;0.90;;
48034;SDS011;33812;46.480;6.834;2022-12-15T10:32:07;1.25;;;0.90;;
48034;SDS011;33812;46.480;6.834;2022-12-15T10:36:17;2.20;;;0.95;;
48034;SDS011;33812;46.480;6.834;2022-12-15T10:40:19;2.88;;;0.70;;
48034;SDS011;33812;46.480;6.834;2022-12-15T10:44:47;7.15;;;0.85;;
48034;SDS011;33812;46.480;6.834;2022-12-15T10:48:51;3.72;;;1.20;;
48034;SDS011;33812;46.480;6.834;2022-12-15T10:52:56;4.60;;;1.13;;
48034;SDS011;33812;46.480;6.834;2022-12-15T10:56:58;6.47;;;0.80;;
48034;SDS011;33812;46.480;6.834;2022-12-15T11:01:07;10.93;;;1.42;;
48034;SDS011;33812;46.480;6.834;2022-12-15T11:05:15;2.97;;;1.17;;
48034;SDS011;33812;46.480;6.834;2022-12-15T11:09:23;5.32;;;1.15;;
48034;SDS011;33812;46.480;6.834;2022-12-15T11:13:28;5.05;;;1.10;;
48034;SDS011;33812;46.480;6.834;2022-12-15T11:17:35;5.15;;;0.90;;
48034;SDS011;33812;46.480;6.834;2022-12-15T11:21:43;6.22;;;1.13;;
48034;SDS011;33812;46.480;6.834;2022-12-15T11:25:50;4.90;;;0.80;;
48034;SDS011;33812;46.480;6.834;2022-12-15T11:29:59;1.92;;;1.15;;
48034;SDS011;33812;46.480;6.834;2022-12-15T11:34:10;5.75;;;1.00;;
48034;SDS011;33812;46.480;6.834;2022-12-15T11:38:16;1.95;;;0.70;;
48034;SDS011;33812;46.480;6.834;2022-12-15T11:42:27;4.75;;;1.27;;
48034;SDS011;33812;46.480;6.834;2022-12-15T11:46:40;5.15;;;1.20;;
48034;SDS011;33812;46.480;6.834;2022-12-15T11:50:51;4.78;;;1.17;;
48034;SDS011;33812;46.480;6.834;2022-12-15T11:55:01;6.35;;;1.20;;
48034;SDS011;33812;46.480;6.834;2022-12-15T11:59:20;8.30;;;1.02;;
48034;SDS011;33812;46.480;6.834;2022-12-15T12:03:36;5.30;;;1.40;;
48034;SDS011;33812;46.480;6.834;2022-12-15T12:07:51;12.57;;;1.30;;
48034;SDS011;33812;46.480;6.834;2022-12-15T12:12:01;6.68;;;1.08;;
48034;SDS011;33812;46.480;6.834;2022-12-15T12:16:17;7.97;;;1.27;;
48034;SDS011;33812;46.480;6.834;2022-12-15T12:20:34;9.82;;;1.67;;
48034;SDS011;33812;46.480;6.834;2022-12-15T12:24:44;7.40;;;1.65;;
48034;SDS011;33812;46.480;6.834;2022-12-15T12:28:52;13.20;;;2.95;;
48034;SDS011;33812;46.480;6.834;2022-12-15T12:33:03;7.50;;;1.30;;
48034;SDS011;33812;46.480;6.834;2022-12-15T12:37:13;11.05;;;1.30;;
48034;SDS011;33812;46.480;6.834;2022-12-15T12:41:27;13.30;;;1.10;;
48034;SDS011;33812;46.480;6.834;2022-12-15T12:45:37;16.17;;;1.40;;
48034;SDS011;33812;46.480;6.834;2022-12-15T12:49:47;7.18;;;1.20;;
48034;SDS011;33812;46.480;6.834;2022-12-15T12:53:53;12.50;;;1.23;;
48034;SDS011;33812;46.480;6.834;2022-12-15T12:57:57;4.80;;;1.60;;
48034;SDS011;33812;46.480;6.834;2022-12-15T13:02:10;9.55;;;1.33;;
48034;SDS011;33812;46.480;6.834;2022-12-15T13:06:59;4.43;;;1.23;;
48034;SDS011;33812;46.480;6.834;2022-12-15T13:15:40;7.65;;;1.27;;
48034;SDS011;33812;46.480;6.834;2022-12-15T13:20:04;6.43;;;1.10;;
48034;SDS011;33812;46.480;6.834;2022-12-15T13:24:25;4.35;;;1.25;;
48034;SDS011;33812;46.480;6.834;2022-12-15T13:28:42;2.63;;;1.00;;
48034;SDS011;33812;46.480;6.834;2022-12-15T13:32:52;5.90;;;1.02;;
48034;SDS011;33812;46.480;6.834;2022-12-15T13:36:56;6.20;;;1.63;;
48034;SDS011;33812;46.480;6.834;2022-12-15T13:40:58;2.60;;;0.73;;
48034;SDS011;33812;46.480;6.834;2022-12-15T13:49:41;4.18;;;0.82;;
48034;SDS011;33812;46.480;6.834;2022-12-15T13:53:50;7.28;;;0.90;;
48034;SDS011;33812;46.480;6.834;2022-12-15T13:57:56;6.55;;;1.48;;
48034;SDS011;33812;46.480;6.834;2022-12-15T14:02:00;3.47;;;1.42;;
48034;SDS011;33812;46.480;6.834;2022-12-15T14:06:11;1.58;;;0.88;;
48034;SDS011;33812;46.480;6.834;2022-12-15T14:10:16;1.63;;;1.00;;
48034;SDS011;33812;46.480;6.834;2022-12-15T14:18:26;4.70;;;1.00;;
48034;SDS011;33812;46.480;6.834;2022-12-15T14:22:31;6.18;;;2.28;;
48034;SDS011;33812;46.480;6.834;2022-12-15T14:26:33;6.68;;;2.20;;
48034;SDS011;33812;46.480;6.834;2022-12-15T14:30:35;4.18;;;1.38;;
48034;SDS011;33812;46.480;6.834;2022-12-15T14:34:37;5.55;;;1.63;;
48034;SDS011;33812;46.480;6.834;2022-12-15T14:38:43;6.37;;;1.60;;
48034;SDS011;33812;46.480;6.834;2022-12-15T14:42:50;4.45;;;1.52;;
48034;SDS011;33812;46.480;6.834;2022-12-15T14:46:53;7.63;;;1.35;;
48034;SDS011;33812;46.480;6.834;2022-12-15T14:50:57;7.95;;;1.55;;
48034;SDS011;33812;46.480;6.834;2022-12-15T14:55:02;2.00;;;1.15;;
48034;SDS011;33812;46.480;6.834;2022-12-15T14:59:23;5.25;;;1.30;;
48034;SDS011;33812;46.480;6.834;2022-12-15T15:03:34;4.60;;;1.42;;
48034;SDS011;33812;46.480;6.834;2022-12-15T15:07:37;7.22;;;1.20;;
48034;SDS011;33812;46.480;6.834;2022-12-15T15:11:41;5.07;;;1.13;;
48034;SDS011;33812;46.480;6.834;2022-12-15T15:15:49;7.68;;;2.00;;
48034;SDS011;33812;46.480;6.834;2022-12-15T15:19:53;5.28;;;1.88;;
48034;SDS011;33812;46.480;6.834;2022-12-15T15:23:58;3.45;;;1.27;;
48034;SDS011;33812;46.480;6.834;2022-12-15T15:28:10;4.50;;;1.80;;
48034;SDS011;33812;46.480;6.834;2022-12-15T15:32:15;6.80;;;1.50;;
48034;SDS011;33812;46.480;6.834;2022-12-15T15:36:17;5.55;;;1.45;;
48034;SDS011;33812;46.480;6.834;2022-12-15T15:40:19;4.43;;;1.50;;
48034;SDS011;33812;46.480;6.834;2022-12-15T15:44:22;3.78;;;1.35;;
48034;SDS011;33812;46.480;6.834;2022-12-15T15:48:25;16.23;;;1.83;;
48034;SDS011;33812;46.480;6.834;2022-12-15T15:52:30;11.27;;;1.50;;
48034;SDS011;33812;46.480;6.834;2022-12-15T15:56:33;7.90;;;2.25;;
48034;SDS011;33812;46.480;6.834;2022-12-15T16:00:36;4.15;;;1.20;;
48034;SDS011;33812;46.480;6.834;2022-12-15T16:04:39;5.68;;;1.52;;
48034;SDS011;33812;46.480;6.834;2022-12-15T16:08:41;7.97;;;1.38;;
48034;SDS011;33812;46.480;6.834;2022-12-15T16:12:44;5.68;;;1.27;;
48034;SDS011;33812;46.480;6.834;2022-12-15T16:16:50;5.50;;;1.40;;
48034;SDS011;33812;46.480;6.834;2022-12-15T16:20:53;4.00;;;1.10;;
48034;SDS011;33812;46.480;6.834;2022-12-15T16:24:54;2.13;;;1.08;;
48034;SDS011;33812;46.480;6.834;2022-12-15T16:28:57;4.75;;;1.35;;
48034;SDS011;33812;46.480;6.834;2022-12-15T16:33:01;5.63;;;1.70;;
48034;SDS011;33812;46.480;6.834;2022-12-15T16:37:03;12.10;;;1.98;;
48034;SDS011;33812;46.480;6.834;2022-12-15T16:41:06;24.50;;;3.17;;
48034;SDS011;33812;46.480;6.834;2022-12-15T16:45:14;13.48;;;2.47;;
48034;SDS011;33812;46.480;6.834;2022-12-15T16:49:19;30.48;;;1.92;;
48034;SDS011;33812;46.480;6.834;2022-12-15T16:53:21;9.38;;;1.77;;
48034;SDS011;33812;46.480;6.834;2022-12-15T16:57:25;11.63;;;2.30;;
48034;SDS011;33812;46.480;6.834;2022-12-15T17:01:27;12.70;;;2.40;;
48034;SDS011;33812;46.480;6.834;2022-12-15T17:05:30;17.20;;;2.40;;
48034;SDS011;33812;46.480;6.834;2022-12-15T17:09:33;9.43;;;1.88;;
48034;SDS011;33812;46.480;6.834;2022-12-15T17:13:37;4.05;;;1.80;;
48034;SDS011;33812;46.480;6.834;2022-12-15T17:17:40;6.00;;;1.67;;
48034;SDS011;33812;46.480;6.834;2022-12-15T17:21:46;10.90;;;2.50;;
48034;SDS011;33812;46.480;6.834;2022-12-15T17:25:50;10.13;;;2.45;;
48034;SDS011;33812;46.480;6.834;2022-12-15T17:29:53;15.77;;;1.88;;
48034;SDS011;33812;46.480;6.834;2022-12-15T17:33:56;12.65;;;2.40;;
48034;SDS011;33812;46.480;6.834;2022-12-15T17:38:00;18.52;;;2.45;;
48034;SDS011;33812;46.480;6.834;2022-12-15T17:42:01;17.88;;;3.03;;
48034;SDS011;33812;46.480;6.834;2022-12-15T17:46:07;35.70;;;3.92;;
48034;SDS011;33812;46.480;6.834;2022-12-15T17:50:09;13.18;;;2.40;;
48034;SDS011;33812;46.480;6.834;2022-12-15T17:54:13;14.07;;;2.00;;
48034;SDS011;33812;46.480;6.834;2022-12-15T17:58:16;18.27;;;2.13;;
48034;SDS011;33812;46.480;6.834;2022-12-15T18:02:20;9.10;;;2.25;;
48034;SDS011;33812;46.480;6.834;2022-12-15T18:06:21;14.65;;;3.33;;
48034;SDS011;33812;46.480;6.834;2022-12-15T18:10:27;5.47;;;2.22;;
48034;SDS011;33812;46.480;6.834;2022-12-15T18:14:31;14.18;;;3.03;;
48034;SDS011;33812;46.480;6.834;2022-12-15T18:18:33;9.48;;;1.83;;
48034;SDS011;33812;46.480;6.834;2022-12-15T18:22:35;13.65;;;1.88;;
48034;SDS011;33812;46.480;6.834;2022-12-15T18:26:38;14.57;;;2.13;;
48034;SDS011;33812;46.480;6.834;2022-12-15T18:30:40;4.60;;;2.25;;
48034;SDS011;33812;46.480;6.834;2022-12-15T18:34:42;6.05;;;1.60;;
48034;SDS011;33812;46.480;6.834;2022-12-15T18:38:44;10.65;;;1.60;;
48034;SDS011;33812;46.480;6.834;2022-12-15T18:42:47;4.95;;;1.45;;
48034;SDS011;33812;46.480;6.834;2022-12-15T18:46:49;6.45;;;1.70;;
48034;SDS011;33812;46.480;6.834;2022-12-15T18:50:51;8.82;;;2.58;;
48034;SDS011;33812;46.480;6.834;2022-12-15T18:54:54;14.65;;;3.33;;
48034;SDS011;33812;46.480;6.834;2022-12-15T18:58:57;22.15;;;3.88;;
48034;SDS011;33812;46.480;6.834;2022-12-15T19:02:59;14.50;;;3.90;;
48034;SDS011;33812;46.480;6.834;2022-12-15T19:07:03;17.48;;;3.60;;
48034;SDS011;33812;46.480;6.834;2022-12-15T19:11:09;9.52;;;3.50;;
48034;SDS011;33812;46.480;6.834;2022-12-15T19:15:15;10.80;;;3.15;;
48034;SDS011;33812;46.480;6.834;2022-12-15T19:19:18;12.88;;;2.63;;
48034;SDS011;33812;46.480;6.834;2022-12-15T19:23:42;11.73;;;2.50;;
48034;SDS011;33812;46.480;6.834;2022-12-15T19:27:44;12.93;;;2.42;;
48034;SDS011;33812;46.480;6.834;2022-12-15T19:31:48;12.20;;;2.67;;
48034;SDS011;33812;46.480;6.834;2022-12-15T19:35:51;10.00;;;2.63;;
48034;SDS011;33812;46.480;6.834;2022-12-15T19:39:54;15.77;;;3.88;;
48034;SDS011;33812;46.480;6.834;2022-12-15T19:43:58;13.65;;;3.30;;
48034;SDS011;33812;46.480;6.834;2022-12-15T19:48:02;15.13;;;3.85;;
48034;SDS011;33812;46.480;6.834;2022-12-15T19:52:04;18.35;;;3.88;;
48034;SDS011;33812;46.480;6.834;2022-12-15T19:56:08;17.45;;;4.35;;
48034;SDS011;33812;46.480;6.834;2022-12-15T20:00:14;22.38;;;5.28;;
48034;SDS011;33812;46.480;6.834;2022-12-15T20:04:18;30.30;;;3.88;;
48034;SDS011;33812;46.480;6.834;2022-12-15T20:08:22;19.08;;;3.47;;
48034;SDS011;33812;46.480;6.834;2022-12-15T20:12:26;27.00;;;3.60;;
48034;SDS011;33812;46.480;6.834;2022-12-15T20:16:31;14.80;;;3.25;;
48034;SDS011;33812;46.480;6.834;2022-12-15T20:24:35;14.55;;;3.40;;
48034;SDS011;33812;46.480;6.834;2022-12-15T20:28:37;18.80;;;4.35;;
48034;SDS011;33812;46.480;6.834;2022-12-15T20:32:39;12.25;;;3.50;;
48034;SDS011;33812;46.480;6.834;2022-12-15T20:36:43;14.73;;;3.13;;
48034;SDS011;33812;46.480;6.834;2022-12-15T20:40:46;12.55;;;2.83;;
48034;SDS011;33812;46.480;6.834;2022-12-15T20:44:48;18.63;;;3.70;;
48034;SDS011;33812;46.480;6.834;2022-12-15T20:48:50;14.55;;;2.95;;
48034;SDS011;33812;46.480;6.834;2022-12-15T20:52:55;11.98;;;2.90;;
48034;SDS011;33812;46.480;6.834;2022-12-15T20:56:57;15.93;;;4.05;;
48034;SDS011;33812;46.480;6.834;2022-12-15T21:00:58;14.48;;;2.92;;
48034;SDS011;33812;46.480;6.834;2022-12-15T21:05:01;6.00;;;2.75;;
48034;SDS011;33812;46.480;6.834;2022-12-15T21:09:09;7.72;;;2.85;;
48034;SDS011;33812;46.480;6.834;2022-12-15T21:13:17;8.93;;;2.40;;
48034;SDS011;33812;46.480;6.834;2022-12-15T21:17:23;10.18;;;2.45;;
48034;SDS011;33812;46.480;6.834;2022-12-15T21:21:27;10.23;;;2.45;;
48034;SDS011;33812;46.480;6.834;2022-12-15T21:25:32;10.32;;;2.33;;
48034;SDS011;33812;46.480;6.834;2022-12-15T21:29:34;14.25;;;2.90;;
48034;SDS011;33812;46.480;6.834;2022-12-15T21:33:36;6.55;;;2.30;;
48034;SDS011;33812;46.480;6.834;2022-12-15T21:37:38;8.70;;;2.65;;
48034;SDS011;33812;46.480;6.834;2022-12-15T21:41:41;8.93;;;2.58;;
48034;SDS011;33812;46.480;6.834;2022-12-15T21:45:44;20.27;;;2.17;;
48034;SDS011;33812;46.480;6.834;2022-12-15T21:49:46;10.77;;;3.15;;
48034;SDS011;33812;46.480;6.834;2022-12-15T21:53:48;10.55;;;1.88;;
48034;SDS011;33812;46.480;6.834;2022-12-15T21:57:53;8.07;;;2.55;;
48034;SDS011;33812;46.480;6.834;2022-12-15T22:01:55;9.45;;;2.78;;
48034;SDS011;33812;46.480;6.834;2022-12-15T22:05:59;12.23;;;1.75;;
48034;SDS011;33812;46.480;6.834;2022-12-15T22:10:01;6.88;;;2.17;;
48034;SDS011;33812;46.480;6.834;2022-12-15T22:14:12;8.13;;;2.03;;
48034;SDS011;33812;46.480;6.834;2022-12-15T22:18:17;10.30;;;1.85;;
48034;SDS011;33812;46.480;6.834;2022-12-15T22:22:22;7.88;;;1.70;;
48034;SDS011;33812;46.480;6.834;2022-12-15T22:26:26;12.95;;;2.03;;
48034;SDS011;33812;46.480;6.834;2022-12-15T22:30:31;7.55;;;2.30;;
48034;SDS011;33812;46.480;6.834;2022-12-15T22:34:34;3.88;;;1.50;;
48034;SDS011;33812;46.480;6.834;2022-12-15T22:38:36;5.85;;;1.80;;
48034;SDS011;33812;46.480;6.834;2022-12-15T22:42:38;7.90;;;2.17;;
48034;SDS011;33812;46.480;6.834;2022-12-15T22:46:45;4.10;;;1.60;;
48034;SDS011;33812;46.480;6.834;2022-12-15T22:50:47;4.60;;;1.50;;
48034;SDS011;33812;46.480;6.834;2022-12-15T22:54:49;6.53;;;1.20;;
48034;SDS011;33812;46.480;6.834;2022-12-15T22:58:54;3.92;;;1.50;;
48034;SDS011;33812;46.480;6.834;2022-12-15T23:03:01;7.75;;;1.52;;
48034;SDS011;33812;46.480;6.834;2022-12-15T23:07:04;6.40;;;1.42;;
48034;SDS011;33812;46.480;6.834;2022-12-15T23:11:09;2.55;;;0.98;;
48034;SDS011;33812;46.480;6.834;2022-12-15T23:15:28;4.72;;;1.30;;
48034;SDS011;33812;46.480;6.834;2022-12-15T23:19:50;3.67;;;1.48;;
48034;SDS011;33812;46.480;6.834;2022-12-15T23:23:52;3.72;;;1.60;;
48034;SDS011;33812;46.480;6.834;2022-12-15T23:27:54;8.35;;;1.48;;
48034;SDS011;33812;46.480;6.834;2022-12-15T23:31:55;2.15;;;1.10;;
48034;SDS011;33812;46.480;6.834;2022-12-15T23:35:59;3.28;;;1.00;;
48034;SDS011;33812;46.480;6.834;2022-12-15T23:40:02;3.67;;;1.20;;
48034;SDS011;33812;46.480;6.834;2022-12-15T23:44:04;3.13;;;1.13;;
48034;SDS011;33812;46.480;6.834;2022-12-15T23:48:06;2.35;;;1.05;;
48034;SDS011;33812;46.480;6.834;2022-12-15T23:52:10;4.72;;;1.10;;
48034;SDS011;33812;46.480;6.834;2022-12-15T23:56:12;2.15;;;1.00;;
